Time;durP1;ratioP1;P1;durP2;ratioP2;P2;SDS_P1;SDS_P2;PMS_P1;PMS_P2;Temp;Humidity;BMP_temperature;BMP_pressure;BME280_temperature;BME280_humidity;BME280_pressure;Samples;Min_cycle;Max_cycle;Signal;HPM_P1;HPM_P2
2022/09/24 00:01:08;;;;;;;2.20;1.20;;;13.90;99.90;;;;;;5058492;28;20479;-72
2022/09/24 00:03:35;;;;;;;7.50;1.30;;;13.80;99.90;;;;;;5054685;28;20570;-72
2022/09/24 00:06:02;;;;;;;1.70;1.20;;;13.80;1.00;;;;;;5056868;28;20542;-72
2022/09/24 00:08:31;;;;;;;2.17;1.20;;;13.90;1.00;;;;;;5055810;28;20454;-72
2022/09/24 00:11:01;;;;;;;1.50;1.03;;;14.00;99.90;;;;;;5058367;28;20804;-72
2022/09/24 00:13:28;;;;;;;2.73;1.70;;;14.10;99.90;;;;;;5056469;28;20526;-72
2022/09/24 00:15:55;;;;;;;2.33;1.30;;;14.10;99.90;;;;;;5059348;28;20451;-72
2022/09/24 00:18:22;;;;;;;2.20;1.10;;;14.10;99.90;;;;;;5055851;28;20562;-73
2022/09/24 00:20:49;;;;;;;1.67;1.00;;;14.10;99.90;;;;;;5058035;28;20575;-71
2022/09/24 00:23:16;;;;;;;1.73;1.53;;;14.10;99.90;;;;;;5058426;28;20555;-71
2022/09/24 00:28:33;;;;;;;2.10;1.20;;;14.00;99.90;;;;;;5057731;28;20885;-71
2022/09/24 00:31:05;;;;;;;1.93;1.47;;;14.20;99.90;;;;;;5058173;28;20883;-71
2022/09/24 00:33:33;;;;;;;1.27;1.07;;;14.20;99.90;;;;;;5056705;28;20537;-71
2022/09/24 00:36:03;;;;;;;1.93;1.17;;;14.20;99.90;;;;;;5058745;28;20450;-71
2022/09/24 00:38:30;;;;;;;4.10;1.30;;;14.30;1.00;;;;;;5056781;28;20451;-71
2022/09/24 00:40:59;;;;;;;1.90;1.17;;;14.20;1.00;;;;;;5058755;28;20489;-71
2022/09/24 00:43:27;;;;;;;3.10;1.57;;;14.20;55.40;;;;;;5056979;28;20546;-71
2022/09/24 00:46:00;;;;;;;1.60;1.10;;;14.30;99.90;;;;;;5058727;28;20447;-71
2022/09/24 00:48:27;;;;;;;2.37;1.20;;;14.20;99.90;;;;;;5056733;28;20447;-71
2022/09/24 00:50:55;;;;;;;1.87;1.20;;;14.20;99.90;;;;;;5058891;28;20443;-71
2022/09/24 00:53:27;;;;;;;1.57;1.10;;;14.20;99.90;;;;;;5057483;28;20746;-72
2022/09/24 00:55:58;;;;;;;2.70;1.93;;;14.20;99.90;;;;;;5059907;28;20455;-71
2022/09/24 00:58:25;;;;;;;1.93;1.40;;;14.20;99.90;;;;;;5058180;28;20451;-71
2022/09/24 01:00:57;;;;;;;1.60;1.20;;;14.20;99.90;;;;;;5061191;28;20570;-71
2022/09/24 01:03:27;;;;;;;1.77;1.30;;;14.20;99.90;;;;;;5057991;28;20447;-72
2022/09/24 01:05:54;;;;;;;2.40;1.20;;;14.10;99.90;;;;;;5059923;28;20443;-71
2022/09/24 01:08:21;;;;;;;1.83;1.40;;;14.00;99.90;;;;;;5059259;28;20879;-71
2022/09/24 01:11:11;;;;;;;2.70;1.50;;;14.00;99.90;;;;;;5058599;28;20446;-71
2022/09/24 01:13:55;;;;;;;2.70;1.57;;;13.90;99.90;;;;;;5056279;28;20505;-72
2022/09/24 01:16:29;;;;;;;1.90;1.50;;;13.80;1.00;;;;;;5058368;28;20481;-71
2022/09/24 01:19:09;;;;;;;3.10;1.43;;;13.70;1.00;;;;;;5055369;28;20450;-71
2022/09/24 01:21:41;;;;;;;1.47;1.20;;;13.70;1.00;;;;;;5058145;28;20569;-71
2022/09/24 01:24:32;;;;;;;2.30;1.80;;;13.80;1.00;;;;;;5055748;28;20465;-72
2022/09/24 01:27:07;;;;;;;3.90;1.43;;;13.80;1.00;;;;;;5058240;28;20739;-71
2022/09/24 01:29:48;;;;;;;2.80;1.20;;;13.80;1.00;;;;;;5055040;28;20462;-71
2022/09/24 01:32:23;;;;;;;1.70;1.50;;;13.80;1.00;;;;;;5056965;28;20906;-71
2022/09/24 01:34:55;;;;;;;1.47;1.10;;;13.90;1.00;;;;;;5055358;28;20546;-72
2022/09/24 01:37:24;;;;;;;2.60;1.57;;;13.80;1.00;;;;;;5057010;28;20453;-72
2022/09/24 01:39:54;;;;;;;1.87;1.33;;;13.70;1.00;;;;;;5054275;28;21010;-72
2022/09/24 01:42:22;;;;;;;3.83;1.40;;;13.70;1.00;;;;;;5057385;28;20475;-72
2022/09/24 01:44:51;;;;;;;1.83;1.60;;;13.70;1.00;;;;;;5055169;28;20465;-72
2022/09/24 01:47:24;;;;;;;1.70;1.60;;;13.70;1.00;;;;;;5057326;28;20447;-72
2022/09/24 01:49:52;;;;;;;2.57;1.50;;;13.70;1.00;;;;;;5053727;28;20459;-71
2022/09/24 01:52:24;;;;;;;4.03;1.57;;;13.80;1.00;;;;;;5057112;28;20883;-72
2022/09/24 01:54:54;;;;;;;3.27;1.30;;;13.80;1.00;;;;;;5055303;28;20871;-72
2022/09/24 01:57:24;;;;;;;2.40;1.30;;;13.70;1.00;;;;;;5057671;28;20448;-72
2022/09/24 01:59:58;;;;;;;3.07;2.17;;;13.70;1.00;;;;;;5056267;28;20545;-72
2022/09/24 02:02:31;;;;;;;2.20;1.60;;;13.70;1.00;;;;;;5057566;28;20451;-71
2022/09/24 02:05:03;;;;;;;2.53;1.30;;;13.70;1.00;;;;;;5053984;28;20483;-72
2022/09/24 02:07:35;;;;;;;2.40;1.80;;;13.60;1.00;;;;;;5057050;28;20754;-72
2022/09/24 02:10:04;;;;;;;3.70;1.83;;;13.60;1.00;;;;;;5054055;28;20451;-71
2022/09/24 02:12:34;;;;;;;2.43;2.03;;;13.60;1.00;;;;;;5056998;28;20867;-72
2022/09/24 02:15:10;;;;;;;2.03;1.50;;;13.60;1.00;;;;;;5055395;28;20461;-73
2022/09/24 02:17:42;;;;;;;2.17;1.40;;;13.70;1.00;;;;;;5057038;28;20759;-72
2022/09/24 02:20:15;;;;;;;2.30;1.50;;;13.60;1.00;;;;;;5054523;28;20490;-71
2022/09/24 02:22:43;;;;;;;3.70;2.20;;;13.60;1.00;;;;;;5056879;28;20451;-71
2022/09/24 02:25:15;;;;;;;2.60;1.73;;;13.50;1.00;;;;;;5053881;28;20463;-72
2022/09/24 02:27:42;;;;;;;2.10;1.70;;;13.60;1.00;;;;;;5055447;28;20542;-71
2022/09/24 02:30:11;;;;;;;3.10;1.70;;;13.60;1.00;;;;;;5053492;28;20545;-71
2022/09/24 02:32:41;;;;;;;1.97;1.57;;;13.60;1.00;;;;;;5054603;28;20454;-72
2022/09/24 02:35:09;;;;;;;2.27;1.40;;;13.60;1.00;;;;;;5056260;28;20909;-72
2022/09/24 02:37:38;;;;;;;2.63;1.77;;;13.60;1.00;;;;;;5051933;28;20897;-72
2022/09/24 02:40:07;;;;;;;4.97;2.33;;;13.50;1.00;;;;;;5055094;28;20545;-71
2022/09/24 02:42:34;;;;;;;2.13;1.90;;;13.40;1.00;;;;;;5053553;28;20857;-72
2022/09/24 02:45:03;;;;;;;3.03;1.50;;;13.20;1.00;;;;;;5055915;28;20453;-71
2022/09/24 02:47:31;;;;;;;2.03;1.30;;;13.20;1.00;;;;;;5054789;28;20459;-71
2022/09/24 02:49:58;;;;;;;2.63;1.60;;;13.20;1.00;;;;;;5056250;28;20505;-71
2022/09/24 02:52:25;;;;;;;2.00;1.40;;;13.20;1.00;;;;;;5053343;28;20465;-72
2022/09/24 02:54:52;;;;;;;1.50;1.10;;;13.20;1.00;;;;;;5058601;28;20494;-72
2022/09/24 02:57:19;;;;;;;1.87;1.60;;;13.20;1.00;;;;;;5057323;28;20454;-72
2022/09/24 02:59:46;;;;;;;2.03;1.60;;;13.30;1.00;;;;;;5060032;28;20542;-72
2022/09/24 03:02:13;;;;;;;2.60;1.80;;;13.40;1.00;;;;;;5060489;28;20487;-72
2022/09/24 03:04:42;;;;;;;3.13;1.87;;;13.50;1.00;;;;;;5055304;28;20463;-71
2022/09/24 03:07:10;;;;;;;2.93;1.70;;;13.40;1.00;;;;;;5058556;28;20447;-72
2022/09/24 03:09:37;;;;;;;3.00;1.47;;;13.40;1.00;;;;;;5057305;28;20805;-71
2022/09/24 03:12:04;;;;;;;2.63;1.17;;;13.40;1.00;;;;;;5059144;28;20754;-70
2022/09/24 03:14:31;;;;;;;2.30;1.30;;;13.50;1.00;;;;;;5054959;28;20751;-72
2022/09/24 03:16:57;;;;;;;2.73;1.30;;;13.50;1.00;;;;;;5059606;28;20970;-72
2022/09/24 03:19:24;;;;;;;1.80;1.30;;;13.50;1.00;;;;;;5057327;28;20455;-72
2022/09/24 03:21:53;;;;;;;2.00;1.30;;;13.60;1.00;;;;;;5059129;28;20483;-71
2022/09/24 03:24:20;;;;;;;2.40;1.40;;;13.60;1.00;;;;;;5057056;28;20459;-71
2022/09/24 03:26:46;;;;;;;3.80;1.87;;;13.60;1.00;;;;;;5059881;28;20886;-71
2022/09/24 03:29:13;;;;;;;2.23;1.50;;;13.60;1.00;;;;;;5059645;28;20462;-73
2022/09/24 03:31:39;;;;;;;4.30;1.20;;;13.60;1.00;;;;;;5059275;28;20448;-73
2022/09/24 03:34:06;;;;;;;2.17;1.50;;;13.60;1.00;;;;;;5056547;28;20462;-72
2022/09/24 03:36:33;;;;;;;3.03;1.70;;;13.70;1.00;;;;;;5059370;28;20236;-72
2022/09/24 03:39:01;;;;;;;3.50;1.60;;;13.60;1.00;;;;;;5058552;28;20941;-73
2022/09/24 03:41:28;;;;;;;1.90;1.40;;;13.60;1.00;;;;;;5059598;28;20849;-72
2022/09/24 03:43:55;;;;;;;1.90;1.30;;;13.60;1.00;;;;;;5057243;28;20961;-73
2022/09/24 03:46:28;;;;;;;3.40;1.50;;;13.60;1.00;;;;;;5058828;28;20438;-72
2022/09/24 03:48:58;;;;;;;2.83;1.50;;;13.70;1.00;;;;;;5056412;28;21001;-71
2022/09/24 03:51:25;;;;;;;2.77;1.53;;;13.70;1.00;;;;;;5058958;28;20454;-71
2022/09/24 03:53:52;;;;;;;2.23;2.03;;;13.70;1.00;;;;;;5059127;28;20883;-72
2022/09/24 03:56:21;;;;;;;2.10;1.30;;;13.60;1.00;;;;;;5058947;28;20447;-72
2022/09/24 03:58:47;;;;;;;2.20;1.40;;;13.40;1.00;;;;;;5055497;28;20895;-72
2022/09/24 04:01:20;;;;;;;2.70;1.73;;;13.40;1.00;;;;;;5057083;28;20487;-72
2022/09/24 04:03:47;;;;;;;5.87;1.20;;;13.40;1.00;;;;;;5054586;28;20455;-72
2022/09/24 04:06:14;;;;;;;2.60;1.40;;;13.30;1.00;;;;;;5056842;28;20477;-72
2022/09/24 04:08:40;;;;;;;2.30;1.97;;;13.40;1.00;;;;;;5057164;28;20463;-72
2022/09/24 04:11:07;;;;;;;2.10;1.90;;;13.30;1.00;;;;;;5058441;28;20534;-72
2022/09/24 04:13:36;;;;;;;1.87;1.53;;;13.20;1.00;;;;;;5055844;28;20502;-73
2022/09/24 04:16:03;;;;;;;2.13;1.83;;;13.20;1.00;;;;;;5058390;28;20457;-72
2022/09/24 04:18:30;;;;;;;1.90;1.30;;;13.10;1.00;;;;;;5055681;28;20894;-72
2022/09/24 04:20:58;;;;;;;1.97;1.60;;;13.00;1.00;;;;;;5058483;28;20483;-72
2022/09/24 04:23:26;;;;;;;3.30;1.30;;;13.00;1.00;;;;;;5055426;28;20868;-72
2022/09/24 04:25:54;;;;;;;2.57;2.00;;;13.00;1.00;;;;;;5058258;28;20200;-72
2022/09/24 04:28:20;;;;;;;5.60;2.03;;;13.00;1.00;;;;;;5056907;28;20459;-72
2022/09/24 04:30:49;;;;;;;2.60;2.00;;;12.90;1.00;;;;;;5058404;28;20439;-72
2022/09/24 04:33:15;;;;;;;3.10;1.37;;;12.90;1.00;;;;;;5055823;28;20558;-72
2022/09/24 04:35:42;;;;;;;1.83;1.30;;;12.90;1.00;;;;;;5058132;28;20887;-73
2022/09/24 04:38:10;;;;;;;2.17;1.50;;;13.10;1.00;;;;;;5057104;28;20455;-72
2022/09/24 04:40:38;;;;;;;1.90;1.20;;;13.30;1.00;;;;;;5057855;28;20448;-72
2022/09/24 04:43:06;;;;;;;1.53;1.30;;;13.40;1.00;;;;;;5055336;28;20474;-72
2022/09/24 04:45:33;;;;;;;1.70;1.50;;;13.50;1.00;;;;;;5057993;28;20770;-72
2022/09/24 04:48:02;;;;;;;1.60;1.30;;;13.30;1.00;;;;;;5055976;28;20554;-72
2022/09/24 04:50:32;;;;;;;2.03;1.83;;;13.30;1.00;;;;;;5057673;28;20465;-72
2022/09/24 04:52:59;;;;;;;2.47;1.60;;;13.40;1.00;;;;;;5054629;28;20460;-72
2022/09/24 04:55:27;;;;;;;2.13;1.93;;;13.30;1.00;;;;;;5057946;28;20606;-72
2022/09/24 04:57:55;;;;;;;4.03;1.40;;;13.30;1.00;;;;;;5055051;28;20451;-72
2022/09/24 05:00:22;;;;;;;2.00;1.60;;;13.40;1.00;;;;;;5056427;28;20871;-72
2022/09/24 05:02:58;;;;;;;2.10;1.90;;;13.40;1.00;;;;;;5052904;28;21009;-72
2022/09/24 05:05:26;;;;;;;1.67;1.10;;;13.50;1.00;;;;;;5056974;28;20496;-72
2022/09/24 05:07:55;;;;;;;1.80;1.30;;;13.70;1.00;;;;;;5054434;28;20743;-72
2022/09/24 05:10:22;;;;;;;2.10;1.10;;;13.70;1.00;;;;;;5056529;28;20942;-72
2022/09/24 05:12:49;;;;;;;2.93;1.30;;;13.70;1.00;;;;;;5054417;28;20451;-71
2022/09/24 05:15:18;;;;;;;3.03;1.27;;;13.60;1.00;;;;;;5057975;28;20782;-71
2022/09/24 05:17:46;;;;;;;1.37;1.03;;;13.60;1.00;;;;;;5071933;28;20455;-71
2022/09/24 05:20:13;;;;;;;3.20;1.80;;;13.60;1.00;;;;;;5068159;28;20460;-71
2022/09/24 05:22:43;;;;;;;1.60;1.20;;;13.50;1.00;;;;;;5056126;28;20490;-72
2022/09/24 05:25:10;;;;;;;2.40;1.30;;;13.50;1.00;;;;;;5056783;28;20444;-71
2022/09/24 05:27:36;;;;;;;2.40;1.57;;;13.50;1.00;;;;;;5054242;28;20458;-71
2022/09/24 05:30:04;;;;;;;3.27;1.40;;;13.50;1.00;;;;;;5057217;28;20443;-71
2022/09/24 05:32:32;;;;;;;3.40;1.80;;;13.50;1.00;;;;;;5068322;28;20199;-71
2022/09/24 05:34:59;;;;;;;2.77;1.73;;;13.50;1.00;;;;;;5075859;28;20442;-71
2022/09/24 05:37:26;;;;;;;2.90;1.60;;;13.40;1.00;;;;;;5061099;28;20961;-71
2022/09/24 05:39:56;;;;;;;3.33;1.70;;;13.40;1.00;;;;;;5056243;28;20499;-71
2022/09/24 05:42:23;;;;;;;2.67;1.57;;;13.40;1.00;;;;;;5036180;28;20934;-73
2022/09/24 05:44:50;;;;;;;2.30;1.70;;;13.40;1.00;;;;;;5061858;28;20451;-74
2022/09/24 05:47:17;;;;;;;4.37;2.43;;;13.40;1.00;;;;;;5063311;28;20883;-74
2022/09/24 05:49:43;;;;;;;3.10;1.87;;;13.50;1.00;;;;;;5052867;28;20456;-73
2022/09/24 05:52:10;;;;;;;1.87;1.37;;;13.60;1.00;;;;;;5055376;28;20447;-73
2022/09/24 05:54:37;;;;;;;2.50;1.70;;;13.50;1.00;;;;;;5054903;28;20811;-73
2022/09/24 05:57:06;;;;;;;1.87;1.50;;;13.60;1.00;;;;;;5056509;28;20879;-74
2022/09/24 05:59:35;;;;;;;1.73;1.60;;;13.70;1.00;;;;;;5056848;28;20451;-74
2022/09/24 06:02:02;;;;;;;1.70;1.40;;;13.80;1.00;;;;;;5077098;28;20486;-74
2022/09/24 06:04:29;;;;;;;3.77;1.63;;;13.80;1.00;;;;;;5074444;28;20458;-74
2022/09/24 06:06:56;;;;;;;2.20;1.60;;;13.80;1.00;;;;;;5067752;28;20562;-74
2022/09/24 06:09:23;;;;;;;1.70;1.20;;;13.70;1.00;;;;;;5072332;28;20457;-73
2022/09/24 06:11:52;;;;;;;4.03;1.67;;;13.90;1.00;;;;;;5077241;28;20442;-74
2022/09/24 06:14:20;;;;;;;1.50;1.20;;;14.00;1.00;;;;;;5074968;28;20511;-74
2022/09/24 06:16:47;;;;;;;1.97;1.23;;;14.10;1.00;;;;;;5083630;28;20441;-74
2022/09/24 06:19:16;;;;;;;4.10;2.23;;;14.20;1.00;;;;;;5095401;28;20457;-75
2022/09/24 06:21:43;;;;;;;2.80;1.73;;;14.20;99.90;;;;;;5079429;28;20496;-75
2022/09/24 06:24:10;;;;;;;3.40;1.97;;;14.10;1.00;;;;;;5094812;28;20503;-76
2022/09/24 06:26:37;;;;;;;2.43;1.70;;;14.10;1.00;;;;;;5095325;28;20453;-75
2022/09/24 06:32:10;;;;;;;3.70;2.27;;;14.00;1.00;;;;;;5058371;28;20535;-76
2022/09/24 06:34:57;;;;;;;3.90;2.10;;;14.00;1.00;;;;;;5067412;28;20796;-75
2022/09/24 06:37:32;;;;;;;3.03;2.03;;;14.00;1.00;;;;;;5069065;28;20477;-75
2022/09/24 06:40:19;;;;;;;3.40;2.00;;;14.10;1.00;;;;;;5060373;28;20454;-76
2022/09/24 06:42:53;;;;;;;2.20;2.00;;;14.00;1.00;;;;;;5078138;28;20572;-72
2022/09/24 06:45:45;;;;;;;3.57;1.73;;;14.10;1.00;;;;;;5075279;28;20462;-72
2022/09/24 06:48:25;;;;;;;3.47;2.10;;;14.30;1.00;;;;;;5058164;28;20558;-73
2022/09/24 06:50:55;;;;;;;2.80;2.05;;;14.50;1.00;;;;;;5057342;28;20463;-73
2022/09/24 06:53:25;;;;;;;3.27;2.60;;;14.60;1.00;;;;;;5060822;28;20200;-71
2022/09/24 06:55:52;;;;;;;2.33;1.70;;;14.60;99.90;;;;;;5069883;28;20458;-71
2022/09/24 06:58:20;;;;;;;1.93;1.50;;;14.60;99.90;;;;;;5079863;28;20830;-71
2022/09/24 07:00:58;;;;;;;3.27;1.67;;;14.60;99.90;;;;;;5061790;28;20459;-72
2022/09/24 07:03:27;;;;;;;2.00;1.30;;;14.50;99.90;;;;;;5067821;28;20913;-71
2022/09/24 07:05:54;;;;;;;7.60;1.67;;;14.50;1.00;;;;;;5079143;28;20511;-71
2022/09/24 07:08:22;;;;;;;2.20;1.90;;;14.60;1.00;;;;;;5070923;28;20996;-71
2022/09/24 07:10:51;;;;;;;2.70;1.80;;;14.80;99.90;;;;;;5056986;28;20915;-71
2022/09/24 07:13:20;;;;;;;2.17;1.40;;;14.70;99.90;;;;;;5062397;28;20439;-71
2022/09/24 07:15:47;;;;;;;2.57;1.20;;;14.70;99.90;;;;;;5055268;28;20632;-71
2022/09/24 07:18:14;;;;;;;2.40;1.50;;;14.70;1.00;;;;;;5057677;28;20505;-71
2022/09/24 07:20:42;;;;;;;4.03;1.40;;;14.70;99.90;;;;;;5054619;28;20201;-72
2022/09/24 07:23:11;;;;;;;2.70;2.20;;;15.00;99.90;;;;;;5070754;28;20932;-72
2022/09/24 07:25:38;;;;;;;2.23;1.60;;;15.00;99.90;;;;;;5074272;28;20882;-71
2022/09/24 07:28:07;;;;;;;3.13;2.30;;;15.10;99.90;;;;;;5065514;28;20475;-71
2022/09/24 07:30:35;;;;;;;3.00;1.77;;;15.00;99.90;;;;;;5056516;28;20459;-71
2022/09/24 07:33:02;;;;;;;2.10;1.40;;;15.00;99.90;;;;;;5058626;28;20482;-72
2022/09/24 07:35:30;;;;;;;3.47;1.90;;;14.90;99.90;;;;;;5055769;28;20513;-72
2022/09/24 07:38:00;;;;;;;8.57;6.10;;;14.90;99.90;;;;;;5059605;28;20435;-72
2022/09/24 07:40:28;;;;;;;3.10;2.63;;;15.00;99.90;;;;;;5054866;28;20455;-72
2022/09/24 07:42:56;;;;;;;3.80;1.80;;;15.00;99.90;;;;;;5077504;28;21030;-71
2022/09/24 07:45:26;;;;;;;2.00;1.30;;;15.10;99.90;;;;;;5072946;28;20459;-71
2022/09/24 07:47:59;;;;;;;2.53;1.20;;;15.20;99.90;;;;;;5065331;28;20454;-71
2022/09/24 07:50:27;;;;;;;2.23;1.63;;;15.40;99.90;;;;;;5075763;28;20454;-71
2022/09/24 07:52:54;;;;;;;3.27;1.40;;;15.50;1.00;;;;;;5078114;28;20532;-72
2022/09/24 07:55:23;;;;;;;2.40;1.30;;;15.40;1.00;;;;;;5074715;28;20451;-71
2022/09/24 07:57:52;;;;;;;2.10;1.40;;;15.50;1.00;;;;;;5076749;28;20455;-71
2022/09/24 08:00:21;;;;;;;3.83;1.87;;;15.50;1.00;;;;;;5074861;28;20516;-71
2022/09/24 08:02:49;;;;;;;3.30;2.03;;;15.70;99.90;;;;;;5072094;28;20525;-71
2022/09/24 08:05:16;;;;;;;1.97;1.20;;;15.60;99.90;;;;;;5058365;28;20461;-71
2022/09/24 08:07:50;;;;;;;4.23;1.63;;;15.50;1.00;;;;;;5066585;28;20459;-72
2022/09/24 08:10:17;;;;;;;2.37;1.60;;;15.60;1.00;;;;;;5067191;28;20455;-73
2022/09/24 08:12:46;;;;;;;2.67;1.47;;;15.70;1.00;;;;;;5062250;28;20452;-72
2022/09/24 08:15:14;;;;;;;2.20;1.80;;;15.60;1.00;;;;;;5055808;28;20756;-72
2022/09/24 08:17:41;;;;;;;3.07;1.97;;;15.60;1.00;;;;;;5058807;28;20447;-72
2022/09/24 08:20:12;;;;;;;2.35;1.35;;;15.50;1.00;;;;;;5056382;28;20455;-72
2022/09/24 08:22:39;;;;;;;2.23;1.60;;;15.50;20.50;;;;;;5062010;28;20502;-72
2022/09/24 08:25:07;;;;;;;2.10;1.30;;;15.60;1.00;;;;;;5061414;28;20612;-71
2022/09/24 08:27:35;;;;;;;2.27;1.50;;;15.70;1.00;;;;;;5058095;28;20452;-71
2022/09/24 08:30:05;;;;;;;5.27;1.67;;;15.80;1.00;;;;;;5059871;28;20504;-72
2022/09/24 08:32:31;;;;;;;2.17;1.50;;;15.90;1.00;;;;;;5067698;28;20501;-72
2022/09/24 08:34:58;;;;;;;1.70;1.30;;;15.90;1.00;;;;;;5059943;28;20618;-71
2022/09/24 08:37:27;;;;;;;2.13;1.50;;;16.00;1.00;;;;;;5064785;28;20482;-71
2022/09/24 08:39:54;;;;;;;1.50;1.20;;;16.10;1.00;;;;;;5067154;28;20543;-70
2022/09/24 08:42:33;;;;;;;1.80;1.50;;;16.10;27.20;;;;;;5055835;28;20582;-71
2022/09/24 08:47:53;;;;;;;2.67;1.40;;;16.40;1.00;;;;;;5063758;28;20438;-73
2022/09/24 08:50:25;;;;;;;2.37;1.20;;;16.40;1.00;;;;;;5072186;28;20445;-72
2022/09/24 08:53:06;;;;;;;4.67;2.20;;;16.30;1.00;;;;;;5066052;28;20538;-73
2022/09/24 08:55:37;;;;;;;4.20;2.17;;;16.30;1.00;;;;;;5055539;28;20498;-72
2022/09/24 08:58:21;;;;;;;3.90;2.10;;;16.40;1.00;;;;;;5056116;28;20447;-72
2022/09/24 09:00:54;;;;;;;1.80;1.20;;;16.50;1.00;;;;;;5054481;28;20455;-72
2022/09/24 09:03:30;;;;;;;1.20;1.00;;;16.60;1.00;;;;;;5056707;28;20479;-71
2022/09/24 09:06:02;;;;;;;2.03;0.93;;;16.60;53.00;;;;;;5054113;28;20902;-72
2022/09/24 09:08:38;;;;;;;1.00;0.70;;;16.50;99.90;;;;;;5056632;28;20452;-72
2022/09/24 09:11:09;;;;;;;1.00;0.70;;;16.60;56.90;;;;;;5053366;28;20486;-71
2022/09/24 09:13:40;;;;;;;0.90;0.70;;;16.60;55.40;;;;;;5055802;28;21083;-71
2022/09/24 09:16:18;;;;;;;1.07;0.90;;;16.60;1.00;;;;;;5057432;28;20882;-72
2022/09/24 09:18:48;;;;;;;1.00;0.60;;;16.50;1.00;;;;;;5056211;28;20466;-72
2022/09/24 09:21:18;;;;;;;1.20;0.70;;;16.40;99.90;;;;;;5054371;28;20482;-72
2022/09/24 09:23:48;;;;;;;1.43;0.60;;;16.40;99.90;;;;;;5055859;28;20522;-71
2022/09/24 09:26:17;;;;;;;1.03;0.60;;;16.40;99.90;;;;;;5066318;28;20494;-72
2022/09/24 09:28:45;;;;;;;1.37;0.70;;;16.40;99.90;;;;;;5063789;28;20451;-72
2022/09/24 09:31:25;;;;;;;1.30;0.67;;;16.30;1.00;;;;;;5067952;28;20921;-72
2022/09/24 09:34:19;;;;;;;1.10;0.70;;;16.40;1.00;;;;;;5056095;28;20914;-72
2022/09/24 09:37:01;;;;;;;1.03;0.53;;;16.40;1.00;;;;;;5055519;28;20482;-72
2022/09/24 09:39:38;;;;;;;4.37;2.33;;;16.30;1.00;;;;;;5054088;28;20577;-73
2022/09/24 09:42:17;;;;;;;1.20;0.70;;;16.40;1.00;;;;;;5056261;28;20539;-72
2022/09/24 09:44:44;;;;;;;0.97;0.60;;;16.30;1.00;;;;;;5054253;28;20457;-72
2022/09/24 09:47:23;;;;;;;0.90;0.60;;;16.20;1.00;;;;;;5075758;28;20878;-72
2022/09/24 09:50:16;;;;;;;2.80;0.70;;;16.10;1.00;;;;;;5079123;28;20515;-71
2022/09/24 09:52:43;;;;;;;7.50;3.80;;;16.10;1.00;;;;;;5072602;28;20450;-71
2022/09/24 09:55:21;;;;;;;1.87;0.90;;;16.10;1.00;;;;;;5076801;28;20885;-71
2022/09/24 09:57:48;;;;;;;1.57;0.80;;;16.10;1.00;;;;;;5075701;28;20987;-72
2022/09/24 10:00:26;;;;;;;1.13;0.80;;;16.00;10.40;;;;;;5075157;28;20828;-72
2022/09/24 10:02:54;;;;;;;5.20;2.40;;;15.90;34.90;;;;;;5069170;28;20517;-72
2022/09/24 10:05:27;;;;;;;1.20;0.90;;;15.90;69.00;;;;;;5072360;28;20508;-72
2022/09/24 10:07:56;;;;;;;1.30;0.80;;;15.90;85.50;;;;;;5058568;28;20451;-72
2022/09/24 10:10:24;;;;;;;1.30;0.70;;;15.80;54.90;;;;;;5055155;28;20500;-72
2022/09/24 10:12:55;;;;;;;1.07;0.60;;;15.80;88.70;;;;;;5051555;28;20455;-72
2022/09/24 10:15:27;;;;;;;1.10;0.80;;;15.80;54.30;;;;;;5055286;28;20451;-72
2022/09/24 10:17:54;;;;;;;1.77;0.90;;;15.80;77.20;;;;;;5052436;28;20902;-72
2022/09/24 10:20:26;;;;;;;0.90;0.60;;;15.70;54.80;;;;;;5054406;28;20454;-72
2022/09/24 10:22:56;;;;;;;2.50;0.90;;;15.80;63.20;;;;;;5057014;28;20574;-72
2022/09/24 10:25:25;;;;;;;1.40;0.63;;;15.80;78.20;;;;;;5074994;28;21045;-72
2022/09/24 10:30:32;;;;;;;1.07;0.70;;;15.80;75.50;;;;;;5074026;28;20481;-71
2022/09/24 10:30:54;;;;;;;1.20;0.80;;;15.90;56.80;;;;;;5075100;28;20862;-72
2022/09/24 10:33:21;;;;;;;1.73;0.90;;;16.10;45.90;;;;;;5070795;28;20881;-72
2022/09/24 10:35:50;;;;;;;0.90;0.70;;;16.10;55.50;;;;;;5073253;28;20547;-72
2022/09/24 10:38:19;;;;;;;1.00;0.67;;;16.20;54.10;;;;;;5057158;28;20549;-72
2022/09/24 10:40:47;;;;;;;0.90;0.70;;;16.10;30.00;;;;;;5070831;28;20490;-73
2022/09/24 10:43:19;;;;;;;1.10;0.70;;;16.30;31.90;;;;;;5058979;28;20526;-72
2022/09/24 10:46:27;;;;;;;1.00;0.80;;;16.30;12.00;;;;;;5055167;28;20740;-72
2022/09/24 10:49:04;;;;;;;1.70;0.83;;;16.30;26.50;;;;;;5073117;28;20520;-72
2022/09/24 10:51:41;;;;;;;1.10;0.70;;;16.50;27.80;;;;;;5071302;28;20477;-72
2022/09/24 10:54:33;;;;;;;1.00;0.70;;;16.50;1.90;;;;;;5055962;28;20800;-73
2022/09/24 10:57:09;;;;;;;1.00;0.70;;;16.40;1.00;;;;;;5058373;28;20957;-72
2022/09/24 10:59:50;;;;;;;0.97;0.60;;;16.60;1.00;;;;;;5069016;28;20454;-73
2022/09/24 11:02:38;;;;;;;0.90;0.70;;;16.70;6.20;;;;;;5058043;28;20454;-73
2022/09/24 11:05:11;;;;;;;0.90;0.70;;;16.80;1.00;;;;;;5075318;28;20568;-73
2022/09/24 11:07:53;;;;;;;0.83;0.63;;;16.80;1.00;;;;;;5069900;28;20531;-74
2022/09/24 11:10:50;;;;;;;1.50;0.70;;;16.80;1.00;;;;;;5066594;28;20513;-72
2022/09/24 11:13:25;;;;;;;1.03;0.70;;;16.80;1.00;;;;;;5065350;28;20558;-72
2022/09/24 11:16:18;;;;;;;1.20;0.80;;;16.90;1.00;;;;;;5076742;28;20548;-73
2022/09/24 11:18:54;;;;;;;1.97;0.80;;;17.00;1.00;;;;;;5069922;28;20454;-73
2022/09/24 11:21:44;;;;;;;1.10;0.70;;;17.00;1.00;;;;;;5056821;28;20712;-72
2022/09/24 11:24:38;;;;;;;0.90;0.47;;;17.00;1.00;;;;;;5074303;28;20485;-74
2022/09/24 11:27:25;;;;;;;0.90;0.60;;;16.90;1.00;;;;;;5036497;28;20466;-72
2022/09/24 11:30:06;;;;;;;1.00;0.60;;;16.90;1.00;;;;;;5071990;28;20466;-71
2022/09/24 11:32:42;;;;;;;0.70;0.60;;;16.90;1.00;;;;;;5067891;28;20525;-72
2022/09/24 11:35:31;;;;;;;1.10;0.60;;;16.90;1.00;;;;;;5071460;28;20608;-71
2022/09/24 11:38:01;;;;;;;1.10;0.50;;;16.90;1.00;;;;;;5060953;28;20525;-71
2022/09/24 11:40:57;;;;;;;1.13;0.60;;;16.80;1.00;;;;;;5059229;28;20473;-71
2022/09/24 11:43:51;;;;;;;3.77;0.70;;;16.80;1.00;;;;;;5053192;28;20574;-72
2022/09/24 11:46:33;;;;;;;0.80;0.67;;;16.50;1.00;;;;;;5059028;28;20511;-71
2022/09/24 11:49:11;;;;;;;1.10;0.70;;;16.50;7.00;;;;;;5055450;28;20509;-72
2022/09/24 11:51:50;;;;;;;1.00;0.70;;;16.40;13.10;;;;;;5058779;28;20749;-72
2022/09/24 11:54:23;;;;;;;2.27;0.60;;;16.40;22.50;;;;;;5050519;28;20459;-73
2022/09/24 11:56:57;;;;;;;0.87;0.60;;;16.20;22.50;;;;;;5061692;28;20855;-73
2022/09/24 11:59:35;;;;;;;2.77;2.37;;;16.30;43.60;;;;;;5066107;28;20499;-73
2022/09/24 12:02:10;;;;;;;0.90;0.70;;;16.50;65.80;;;;;;5059516;28;20467;-73
2022/09/24 12:04:51;;;;;;;1.43;0.60;;;16.60;45.10;;;;;;5053060;28;20495;-73
2022/09/24 12:07:24;;;;;;;1.40;0.70;;;16.50;46.20;;;;;;5061619;28;20501;-73
2022/09/24 12:09:57;;;;;;;1.10;0.80;;;16.50;38.90;;;;;;5061556;28;20466;-73
2022/09/24 12:12:29;;;;;;;1.50;0.80;;;16.40;45.70;;;;;;5060245;28;20447;-74
2022/09/24 12:15:01;;;;;;;2.50;0.80;;;16.50;51.30;;;;;;5067996;28;20486;-73
2022/09/24 12:17:35;;;;;;;1.80;0.70;;;16.50;61.10;;;;;;5072255;28;20575;-73
2022/09/24 12:20:07;;;;;;;1.87;0.77;;;16.60;69.30;;;;;;5057141;28;20561;-73
2022/09/24 12:22:35;;;;;;;0.80;0.70;;;16.60;74.80;;;;;;5064294;28;20511;-73
2022/09/24 12:25:02;;;;;;;1.67;0.80;;;16.50;52.10;;;;;;5059827;28;20519;-72
2022/09/24 12:27:34;;;;;;;1.20;0.80;;;16.50;61.00;;;;;;5072616;28;20482;-72
2022/09/24 12:33:19;;;;;;;1.50;0.80;;;16.40;99.90;;;;;;5063572;28;21094;-72
2022/09/24 12:36:08;;;;;;;1.00;0.70;;;16.30;99.90;;;;;;5070020;28;20752;-72
2022/09/24 12:38:43;;;;;;;1.13;0.80;;;16.30;99.90;;;;;;5054016;28;20455;-72
2022/09/24 12:41:26;;;;;;;1.00;0.80;;;16.20;99.90;;;;;;5055856;28;20550;-74
2022/09/24 12:44:01;;;;;;;1.20;0.80;;;16.20;99.90;;;;;;5059126;28;20488;-72
2022/09/24 12:46:32;;;;;;;1.20;0.80;;;16.20;99.90;;;;;;5061334;28;20470;-72
2022/09/24 12:49:01;;;;;;;1.13;0.90;;;16.20;99.90;;;;;;5075016;28;20498;-72
2022/09/24 12:51:36;;;;;;;1.20;1.00;;;16.20;99.90;;;;;;5070551;28;20775;-71
2022/09/24 12:54:08;;;;;;;1.40;0.80;;;16.30;99.90;;;;;;5064637;28;20967;-71
2022/09/24 12:56:37;;;;;;;1.93;0.97;;;16.40;99.90;;;;;;5074146;28;20442;-70
2022/09/24 12:59:24;;;;;;;1.30;0.90;;;16.40;99.90;;;;;;5072207;28;20450;-71
2022/09/24 13:01:51;;;;;;;1.20;0.80;;;16.60;99.90;;;;;;5075384;28;20482;-71
2022/09/24 13:04:29;;;;;;;1.30;0.87;;;16.90;99.90;;;;;;5053587;28;20525;-71
2022/09/24 13:06:56;;;;;;;1.50;0.80;;;17.20;81.20;;;;;;5056014;28;20485;-71
2022/09/24 13:09:33;;;;;;;3.00;0.80;;;17.40;50.60;;;;;;5053062;28;20545;-71
2022/09/24 13:12:20;;;;;;;1.70;0.77;;;17.40;53.40;;;;;;5056340;28;20458;-72
2022/09/24 13:15:00;;;;;;;1.30;0.80;;;17.30;74.80;;;;;;5055599;28;20871;-72
2022/09/24 13:17:27;;;;;;;1.30;0.90;;;17.00;46.40;;;;;;5062065;28;20731;-72
2022/09/24 13:19:59;;;;;;;1.30;0.80;;;16.90;63.20;;;;;;5051952;28;20513;-72
2022/09/24 13:22:29;;;;;;;1.27;0.97;;;17.00;59.90;;;;;;5063995;28;20508;-72
2022/09/24 13:25:18;;;;;;;1.30;0.80;;;17.00;67.90;;;;;;5072690;28;20877;-72
2022/09/24 13:27:57;;;;;;;1.30;0.90;;;16.90;83.80;;;;;;5060038;28;20479;-73